createdAt,value
2023-04-25T00:01:22.458Z,63.15
2023-04-25T00:03:51.334Z,63.27
2023-04-25T00:06:19.622Z,63.29
2023-04-25T00:08:48.582Z,63.39
2023-04-25T00:11:16.624Z,63.45
2023-04-25T00:13:44.421Z,63.59
2023-04-25T00:16:14.076Z,63.71
2023-04-25T00:18:43.660Z,63.69
2023-04-25T00:21:11.611Z,63.67
2023-04-25T00:23:41.019Z,63.54
2023-04-25T00:26:08.949Z,63.51
2023-04-25T00:28:36.909Z,63.48
2023-04-25T00:31:05.209Z,63.58
2023-04-25T00:33:32.940Z,63.51
2023-04-25T00:36:01.018Z,63.45
2023-04-25T00:38:29.009Z,63.50
2023-04-25T00:40:58.105Z,63.56
2023-04-25T00:43:28.262Z,63.70
2023-04-25T00:45:58.215Z,63.71
2023-04-25T00:48:26.206Z,63.94
2023-04-25T00:50:59.746Z,64.08
2023-04-25T00:53:29.719Z,64.11
2023-04-25T00:55:57.775Z,64.14
2023-04-25T00:58:25.973Z,64.30
2023-04-25T01:00:53.967Z,64.44
2023-04-25T01:03:23.085Z,64.71
2023-04-25T01:05:52.762Z,64.89
2023-04-25T01:08:26.041Z,65.13
2023-04-25T01:10:54.460Z,65.38
2023-04-25T01:13:22.411Z,65.69
2023-04-25T01:15:51.681Z,66.43
2023-04-25T01:18:21.117Z,66.55
2023-04-25T01:20:53.298Z,66.49
2023-04-25T01:23:22.895Z,66.84
2023-04-25T01:25:52.924Z,66.90
2023-04-25T01:28:21.076Z,66.90
2023-04-25T01:30:49.084Z,67.09
2023-04-25T01:33:18.162Z,67.11
2023-04-25T01:35:46.106Z,67.34
2023-04-25T01:38:15.532Z,67.50
2023-04-25T01:40:47.421Z,67.44
2023-04-25T01:43:15.370Z,67.50
2023-04-25T01:45:43.836Z,67.53
2023-04-25T01:48:15.183Z,67.73
2023-04-25T01:50:46.785Z,67.60
2023-04-25T01:53:15.622Z,67.66
2023-04-25T01:55:45.604Z,67.70
2023-04-25T01:58:15.459Z,67.83
2023-04-25T02:00:46.128Z,67.86
2023-04-25T02:03:14.390Z,67.83
2023-04-25T02:05:42.737Z,68.07
2023-04-25T02:08:12.688Z,68.23
2023-04-25T02:10:40.603Z,68.33
2023-04-25T02:13:10.415Z,68.30
2023-04-25T02:15:40.200Z,68.30
2023-04-25T02:18:12.808Z,68.42
2023-04-25T02:20:42.875Z,68.33
2023-04-25T02:23:10.790Z,68.27
2023-04-25T02:25:38.784Z,68.32
2023-04-25T02:28:06.749Z,68.37
2023-04-25T02:30:35.809Z,68.41
2023-04-25T02:33:05.654Z,68.47
2023-04-25T02:35:33.674Z,68.79
2023-04-25T02:38:01.724Z,68.69
2023-04-25T02:40:29.562Z,68.72
2023-04-25T02:42:57.638Z,68.95
2023-04-25T02:45:27.405Z,69.30
2023-04-25T02:47:55.669Z,69.56
2023-04-25T02:50:52.811Z,69.47
2023-04-25T02:53:20.693Z,69.74
2023-04-25T02:55:50.492Z,70.05
2023-04-25T02:58:18.777Z,69.88
2023-04-25T03:00:48.985Z,70.01
2023-04-25T03:03:18.871Z,70.18
2023-04-25T03:05:47.479Z,70.22
2023-04-25T03:08:16.603Z,70.20
2023-04-25T03:10:46.252Z,70.26
2023-04-25T03:13:17.158Z,70.37
2023-04-25T03:15:45.064Z,71.03
2023-04-25T03:18:13.173Z,70.78
2023-04-25T03:20:42.615Z,70.73
2023-04-25T03:23:11.005Z,70.70
2023-04-25T03:25:40.404Z,70.81
2023-04-25T03:28:08.492Z,70.75
2023-04-25T03:30:38.092Z,70.86
2023-04-25T03:33:11.111Z,70.90
2023-04-25T03:35:39.713Z,70.85
2023-04-25T03:38:08.630Z,70.80
2023-04-25T03:40:39.309Z,70.88
2023-04-25T03:43:25.077Z,70.74
2023-04-25T03:45:55.538Z,70.97
2023-04-25T03:48:25.217Z,71.13
2023-04-25T03:50:54.329Z,71.10
2023-04-25T03:53:40.598Z,71.20
2023-04-25T03:56:27.134Z,71.10
2023-04-25T03:58:57.293Z,71.15
2023-04-25T04:01:26.531Z,71.15
2023-04-25T04:03:54.948Z,71.21
2023-04-25T04:06:23.857Z,71.45
2023-04-25T04:08:53.591Z,71.71
2023-04-25T04:11:22.010Z,71.94
2023-04-25T04:13:50.261Z,71.90
2023-04-25T04:16:19.422Z,71.97
2023-04-25T04:18:48.282Z,71.94
2023-04-25T04:21:16.303Z,72.09
2023-04-25T04:23:44.453Z,72.09
2023-04-25T04:26:13.498Z,72.18
2023-04-25T04:28:47.448Z,72.31
2023-04-25T04:31:23.515Z,72.37
2023-04-25T04:33:52.560Z,72.39
2023-04-25T04:36:22.587Z,72.18
2023-04-25T04:38:50.652Z,72.13
2023-04-25T04:41:20.523Z,71.90
2023-04-25T04:43:53.844Z,71.78
2023-04-25T04:46:32.732Z,71.75
2023-04-25T04:49:14.922Z,71.92
2023-04-25T04:51:59.524Z,71.65
2023-04-25T04:54:36.004Z,71.60
2023-04-25T04:57:11.579Z,71.64
2023-04-25T04:59:54.081Z,71.59
2023-04-25T05:02:40.025Z,71.64
2023-04-25T05:05:10.421Z,71.66
2023-04-25T05:07:57.256Z,71.73
2023-04-25T05:10:39.220Z,71.74
2023-04-25T05:13:11.876Z,71.91
2023-04-25T05:15:59.006Z,71.86
2023-04-25T05:18:28.828Z,72.19
2023-04-25T05:21:11.266Z,72.34
2023-04-25T05:23:44.517Z,72.44
2023-04-25T05:26:33.219Z,72.63
2023-04-25T05:29:21.326Z,72.82
2023-04-25T05:32:08.284Z,72.79
2023-04-25T05:34:37.372Z,72.64
2023-04-25T05:37:09.170Z,72.58
2023-04-25T05:39:39.263Z,72.59
2023-04-25T05:42:15.069Z,72.73
2023-04-25T05:44:56.957Z,72.64
2023-04-25T05:47:35.764Z,72.59
2023-04-25T05:50:19.523Z,72.84
2023-04-25T05:52:55.259Z,72.59
2023-04-25T05:55:28.983Z,72.45
2023-04-25T05:57:57.226Z,72.36
2023-04-25T06:00:25.603Z,72.13
2023-04-25T06:02:54.354Z,72.03
2023-04-25T06:05:24.972Z,71.75
2023-04-25T06:07:53.110Z,71.79
2023-04-25T06:10:23.367Z,71.58
2023-04-25T06:12:51.422Z,71.21
2023-04-25T06:17:49.867Z,71.20
2023-04-25T06:20:18.571Z,70.65
2023-04-25T06:22:46.706Z,70.59
2023-04-25T06:25:15.094Z,70.27
2023-04-25T06:27:43.092Z,69.60
2023-04-25T06:30:13.246Z,69.09
2023-04-25T06:32:41.286Z,69.03
2023-04-25T06:35:10.833Z,68.90
2023-04-25T06:37:41.823Z,68.85
2023-04-25T06:40:10.551Z,68.65
2023-04-25T06:42:38.573Z,68.65
2023-04-25T06:45:09.187Z,68.53
2023-04-25T06:47:37.480Z,68.40
2023-04-25T06:50:06.944Z,68.28
2023-04-25T06:52:35.933Z,68.10
2023-04-25T06:55:05.651Z,67.89
2023-04-25T06:57:35.640Z,67.78
2023-04-25T07:00:09.894Z,67.55
2023-04-25T07:02:38.570Z,67.24
2023-04-25T07:05:07.134Z,67.27
2023-04-25T07:07:35.186Z,67.31
2023-04-25T07:10:03.857Z,67.02
2023-04-25T07:12:31.819Z,66.70
2023-04-25T07:14:59.757Z,66.47
2023-04-25T07:17:28.020Z,66.02
2023-04-25T07:19:56.287Z,65.56
2023-04-25T07:22:24.910Z,64.85
2023-04-25T07:24:53.828Z,64.08
2023-04-25T07:27:22.133Z,64.13
2023-04-25T07:30:09.761Z,63.61
2023-04-25T07:32:40.781Z,63.27
2023-04-25T07:35:09.635Z,62.80
2023-04-25T07:37:37.970Z,61.72
2023-04-25T07:40:15.869Z,61.40
2023-04-25T07:42:45.701Z,61.02
2023-04-25T07:45:17.895Z,60.39
2023-04-25T07:47:45.804Z,60.20
2023-04-25T07:50:14.600Z,59.08
2023-04-25T07:52:42.886Z,59.11
2023-04-25T07:55:16.053Z,58.47
2023-04-25T07:57:57.496Z,58.15
2023-04-25T08:00:25.255Z,57.00
2023-04-25T08:02:54.590Z,56.56
2023-04-25T08:05:23.140Z,55.94
2023-04-25T08:07:52.884Z,55.23
2023-04-25T08:10:21.406Z,55.04
2023-04-25T08:12:50.066Z,53.57
2023-04-25T08:15:17.980Z,52.28
2023-04-25T08:17:46.091Z,47.89
2023-04-25T08:20:14.668Z,45.97
2023-04-25T08:22:43.112Z,47.17
2023-04-25T08:25:19.117Z,45.47
2023-04-25T08:27:47.352Z,46.58
2023-04-25T08:30:16.135Z,47.05
2023-04-25T08:32:44.309Z,46.54
2023-04-25T08:35:19.864Z,46.73
2023-04-25T08:37:47.819Z,45.32
2023-04-25T08:40:16.850Z,45.53
2023-04-25T08:43:00.764Z,46.66
2023-04-25T08:45:31.665Z,47.09
2023-04-25T08:48:00.368Z,47.22
2023-04-25T08:50:28.421Z,47.00
2023-04-25T08:53:11.040Z,46.42
2023-04-25T08:55:42.923Z,47.40
2023-04-25T08:58:12.266Z,47.37
2023-04-25T09:00:40.352Z,47.03
2023-04-25T09:03:15.911Z,46.32
2023-04-25T09:05:44.295Z,46.22
2023-04-25T09:08:13.331Z,44.96
2023-04-25T09:10:41.455Z,45.26
2023-04-25T09:13:18.529Z,45.76
2023-04-25T09:15:57.890Z,45.90
2023-04-25T09:18:34.935Z,46.64
2023-04-25T09:21:14.764Z,46.98
2023-04-25T09:23:48.504Z,46.75
2023-04-25T09:26:18.666Z,46.74
2023-04-25T09:28:48.764Z,46.30
2023-04-25T09:31:27.365Z,46.72
2023-04-25T09:34:02.647Z,47.17
2023-04-25T09:36:32.369Z,46.24
2023-04-25T09:39:10.314Z,45.69
2023-04-25T09:41:46.201Z,46.54
2023-04-25T09:44:14.155Z,46.26
2023-04-25T09:46:43.460Z,46.77
2023-04-25T09:49:15.778Z,46.13
2023-04-25T09:51:57.663Z,45.05
2023-04-25T09:54:27.495Z,44.01
2023-04-25T09:56:57.777Z,43.93
2023-04-25T09:59:26.059Z,44.00
2023-04-25T10:01:56.900Z,43.96
2023-04-25T10:04:30.302Z,43.90
2023-04-25T10:07:06.918Z,43.87
2023-04-25T10:09:37.522Z,41.31
2023-04-25T10:12:07.771Z,41.89
2023-04-25T10:14:36.561Z,42.36
2023-04-25T10:17:04.438Z,42.27
2023-04-25T10:19:32.941Z,39.86
2023-04-25T10:22:15.557Z,40.12
2023-04-25T10:24:45.076Z,39.28
2023-04-25T10:27:13.483Z,39.36
2023-04-25T10:29:44.385Z,39.65
2023-04-25T10:32:15.625Z,39.23
2023-04-25T10:34:49.132Z,37.63
2023-04-25T10:37:16.928Z,36.87
2023-04-25T10:39:45.409Z,37.41
2023-04-25T10:42:13.171Z,35.61
2023-04-25T10:44:41.448Z,34.97
2023-04-25T10:47:10.326Z,36.36
2023-04-25T10:49:43.968Z,36.46
2023-04-25T10:52:30.299Z,36.41
2023-04-25T10:54:59.389Z,35.41
2023-04-25T10:57:48.256Z,34.13
2023-04-25T11:00:19.008Z,35.73
2023-04-25T11:02:49.943Z,35.56
2023-04-25T11:05:29.751Z,35.15
2023-04-25T11:08:07.226Z,34.71
2023-04-25T11:10:35.628Z,33.77
2023-04-25T11:13:05.952Z,34.01
2023-04-25T11:15:33.898Z,32.99
2023-04-25T11:18:02.595Z,32.18
2023-04-25T11:20:30.607Z,33.48
2023-04-25T11:23:00.643Z,34.20
2023-04-25T11:25:30.358Z,34.75
2023-04-25T11:28:14.913Z,35.07
2023-04-25T11:30:52.171Z,35.21
2023-04-25T11:33:25.785Z,35.62
2023-04-25T11:40:01.144Z,34.69
2023-04-25T11:42:31.049Z,35.43
2023-04-25T11:45:00.148Z,34.97
2023-04-25T11:47:33.925Z,34.42
2023-04-25T11:50:06.771Z,34.21
2023-04-25T11:52:46.832Z,33.63
2023-04-25T11:55:20.459Z,33.10
2023-04-25T11:57:53.415Z,33.69
2023-04-25T12:00:23.223Z,33.72
2023-04-25T12:02:58.586Z,33.22
2023-04-25T12:05:33.687Z,33.46
2023-04-25T12:08:18.850Z,33.39
2023-04-25T12:10:47.797Z,33.78
2023-04-25T12:13:28.005Z,33.97
2023-04-25T12:15:57.151Z,33.50
2023-04-25T12:18:28.785Z,33.19
2023-04-25T12:21:05.281Z,33.25
2023-04-25T12:23:42.020Z,33.53
2023-04-25T12:26:14.934Z,34.29
2023-04-25T12:28:47.758Z,34.38
2023-04-25T12:31:16.868Z,34.71
2023-04-25T12:33:48.325Z,34.58
2023-04-25T12:36:17.844Z,34.83
2023-04-25T12:38:45.833Z,34.90
2023-04-25T12:41:13.571Z,35.37
2023-04-25T12:43:42.578Z,35.58
2023-04-25T12:46:10.477Z,35.96
2023-04-25T12:48:39.615Z,36.48
2023-04-25T12:51:10.471Z,36.61
2023-04-25T12:53:42.894Z,36.71
2023-04-25T12:56:11.289Z,37.20
2023-04-25T12:58:41.224Z,37.50
2023-04-25T13:01:09.628Z,37.74
2023-04-25T13:03:37.685Z,37.84
2023-04-25T13:06:08.834Z,38.08
2023-04-25T13:08:38.693Z,38.17
2023-04-25T13:11:08.208Z,38.31
2023-04-25T13:13:36.184Z,37.86
2023-04-25T13:16:06.360Z,37.72
2023-04-25T13:18:37.575Z,37.79
2023-04-25T13:21:05.650Z,38.54
2023-04-25T13:23:38.442Z,39.53
2023-04-25T13:26:10.515Z,40.11
2023-04-25T13:28:38.229Z,40.82
2023-04-25T13:31:09.369Z,40.79
2023-04-25T13:33:38.373Z,41.12
2023-04-25T13:36:07.288Z,41.27
2023-04-25T13:38:35.414Z,41.15
2023-04-25T13:41:04.518Z,41.22
2023-04-25T13:43:34.482Z,41.31
2023-04-25T13:46:02.479Z,41.23
2023-04-25T13:48:31.125Z,41.38
2023-04-25T13:50:59.092Z,40.63
2023-04-25T13:53:27.469Z,41.21
2023-04-25T13:55:55.233Z,42.55
2023-04-25T13:58:27.859Z,42.96
2023-04-25T14:00:55.888Z,43.77
2023-04-25T14:03:24.009Z,44.15
2023-04-25T14:05:52.176Z,44.43
2023-04-25T14:08:20.711Z,44.47
2023-04-25T14:10:48.492Z,44.82
2023-04-25T14:13:16.724Z,44.70
2023-04-25T14:15:45.050Z,44.52
2023-04-25T14:18:14.353Z,44.51
2023-04-25T14:20:42.260Z,44.45
2023-04-25T14:23:10.390Z,44.47
2023-04-25T14:25:39.489Z,44.46
2023-04-25T14:28:08.226Z,44.51
2023-04-25T14:30:41.840Z,44.55
2023-04-25T14:33:09.772Z,44.82
2023-04-25T14:35:38.634Z,45.26
2023-04-25T14:38:09.052Z,45.54
2023-04-25T14:40:38.338Z,45.73
2023-04-25T14:43:06.365Z,45.57
2023-04-25T14:45:35.274Z,45.59
2023-04-25T14:48:03.540Z,45.74
2023-04-25T14:50:37.782Z,46.16
2023-04-25T14:53:24.045Z,46.25
2023-04-25T14:55:55.125Z,46.46
2023-04-25T14:58:26.572Z,46.85
2023-04-25T15:01:04.356Z,47.36
2023-04-25T15:03:44.741Z,47.81
2023-04-25T15:06:21.101Z,48.24
2023-04-25T15:08:55.647Z,49.36
2023-04-25T15:11:36.022Z,50.50
2023-04-25T15:14:09.391Z,50.81
2023-04-25T15:16:52.801Z,51.58
2023-04-25T15:19:32.881Z,51.28
2023-04-25T15:22:06.224Z,51.43
2023-04-25T15:24:45.687Z,51.44
2023-04-25T15:27:27.604Z,51.70
2023-04-25T15:30:02.943Z,51.97
2023-04-25T15:32:31.233Z,52.35
2023-04-25T15:35:06.168Z,52.23
2023-04-25T15:37:35.988Z,53.08
2023-04-25T15:40:09.593Z,53.15
2023-04-25T15:42:47.217Z,53.65
2023-04-25T15:45:17.296Z,53.62
2023-04-25T15:47:45.723Z,54.32
2023-04-25T15:50:23.066Z,54.39
2023-04-25T15:52:51.656Z,55.31
2023-04-25T15:55:24.989Z,55.52
2023-04-25T15:57:55.300Z,56.37
2023-04-25T16:00:23.475Z,56.94
2023-04-25T16:02:51.277Z,57.80
2023-04-25T16:05:20.448Z,58.18
2023-04-25T16:07:49.874Z,59.72
2023-04-25T16:10:34.990Z,59.45
2023-04-25T16:12:51.363Z,59.49
2023-04-25T16:15:20.152Z,60.12
2023-04-25T16:17:55.476Z,60.45
2023-04-25T16:20:23.489Z,60.64
2023-04-25T16:22:52.077Z,60.99
2023-04-25T16:25:23.250Z,61.15
2023-04-25T16:27:51.435Z,61.83
2023-04-25T16:30:20.094Z,61.88
2023-04-25T16:32:48.302Z,62.19
2023-04-25T16:35:16.473Z,63.11
2023-04-25T16:37:44.488Z,63.64
2023-04-25T16:40:12.907Z,63.90
2023-04-25T16:42:41.004Z,64.05
2023-04-25T16:45:11.186Z,64.78
2023-04-25T16:47:38.855Z,65.30
2023-04-25T16:50:09.183Z,65.10
2023-04-25T16:52:39.113Z,65.93
2023-04-25T16:55:14.095Z,65.94
2023-04-25T16:57:42.550Z,66.54
2023-04-25T17:00:14.867Z,66.20
2023-04-25T17:02:45.012Z,66.29
2023-04-25T17:05:14.985Z,66.46
2023-04-25T17:07:42.671Z,66.51
2023-04-25T17:10:10.785Z,67.03
2023-04-25T17:12:38.604Z,66.92
2023-04-25T17:15:08.312Z,67.87
2023-04-25T17:17:36.932Z,67.81
2023-04-25T17:20:06.588Z,67.76
2023-04-25T17:22:39.891Z,67.87
2023-04-25T17:25:09.363Z,67.98
2023-04-25T17:27:37.256Z,68.17
2023-04-25T17:30:06.543Z,68.25
2023-04-25T17:32:36.493Z,68.40
2023-04-25T17:35:06.182Z,68.70
2023-04-25T17:37:33.960Z,69.02
2023-04-25T17:40:05.565Z,69.15
2023-04-25T17:42:33.821Z,69.31
2023-04-25T17:45:01.532Z,69.37
2023-04-25T17:47:30.809Z,69.52
2023-04-25T17:49:58.753Z,69.70
2023-04-25T17:52:31.644Z,70.11
2023-04-25T17:54:59.577Z,70.36
2023-04-25T17:57:27.274Z,70.54
2023-04-25T17:59:57.342Z,70.90
2023-04-25T18:02:31.085Z,71.06
2023-04-25T18:05:04.283Z,70.99
2023-04-25T18:07:32.097Z,71.29
2023-04-25T18:10:00.234Z,71.48
2023-04-25T18:12:28.283Z,72.14
2023-04-25T18:14:56.132Z,73.53
2023-04-25T18:17:27.218Z,73.96
2023-04-25T18:19:56.664Z,74.18
2023-04-25T18:22:25.233Z,74.99
2023-04-25T18:24:54.770Z,74.92
2023-04-25T18:27:24.515Z,74.84
2023-04-25T18:30:02.191Z,75.40
2023-04-25T18:32:31.236Z,75.38
2023-04-25T18:34:59.051Z,75.48
2023-04-25T18:37:27.867Z,75.75
2023-04-25T18:39:56.657Z,75.75
2023-04-25T18:42:29.508Z,75.77
2023-04-25T18:44:58.765Z,76.40
2023-04-25T18:47:28.947Z,76.41
2023-04-25T18:50:08.452Z,76.44
2023-04-25T18:52:37.322Z,76.89
2023-04-25T18:55:08.709Z,76.80
2023-04-25T18:57:37.843Z,77.05
2023-04-25T19:00:07.633Z,77.94
2023-04-25T19:02:37.535Z,78.44
2023-04-25T19:05:06.812Z,78.22
2023-04-25T19:07:35.071Z,77.83
2023-04-25T19:10:04.546Z,78.33
2023-04-25T19:12:33.132Z,78.87
2023-04-25T19:15:06.377Z,79.23
2023-04-25T19:17:38.463Z,79.25
2023-04-25T19:20:10.548Z,79.03
2023-04-25T19:22:39.885Z,79.05
2023-04-25T19:25:11.319Z,79.52
2023-04-25T19:27:41.493Z,80.71
2023-04-25T19:30:14.354Z,80.63
2023-04-25T19:32:42.375Z,80.58
2023-04-25T19:35:11.782Z,80.82
2023-04-25T19:37:42.385Z,80.71
2023-04-25T19:40:12.214Z,80.78
2023-04-25T19:42:42.255Z,81.16
2023-04-25T19:45:11.124Z,82.39
2023-04-25T19:47:41.545Z,82.82
2023-04-25T19:50:10.758Z,83.02
2023-04-25T19:52:40.108Z,83.17
2023-04-25T19:55:11.253Z,84.10
2023-04-25T19:57:41.049Z,83.90
2023-04-25T20:00:13.870Z,85.76
2023-04-25T20:02:48.046Z,85.38
2023-04-25T20:05:20.179Z,84.62
2023-04-25T20:07:51.138Z,86.03
2023-04-25T20:10:20.111Z,86.15
2023-04-25T20:12:48.134Z,86.01
2023-04-25T20:15:18.732Z,85.10
2023-04-25T20:17:48.033Z,84.89
2023-04-25T20:20:16.911Z,86.30
2023-04-25T20:22:47.181Z,86.28
2023-04-25T20:25:18.228Z,86.42
2023-04-25T20:27:47.241Z,86.08
2023-04-25T20:30:18.884Z,86.24
2023-04-25T20:32:46.916Z,85.74
2023-04-25T20:35:18.314Z,86.12
2023-04-25T20:37:50.482Z,85.99
2023-04-25T20:40:20.438Z,85.76
2023-04-25T20:42:49.920Z,85.79
2023-04-25T20:45:20.357Z,86.14
2023-04-25T20:47:53.886Z,85.78
2023-04-25T20:53:50.060Z,85.82
2023-04-25T20:56:19.781Z,85.89
2023-04-25T20:58:56.713Z,86.09
2023-04-25T21:01:26.224Z,86.37
2023-04-25T21:03:54.582Z,86.50
2023-04-25T21:06:23.198Z,86.20
2023-04-25T21:08:52.933Z,85.97
2023-04-25T21:11:23.031Z,85.96
2023-04-25T21:13:52.476Z,86.17
2023-04-25T21:16:21.156Z,86.00
2023-04-25T21:18:51.734Z,86.01
2023-04-25T21:21:20.113Z,85.74
2023-04-25T21:23:48.293Z,86.12
2023-04-25T21:26:18.169Z,85.59
2023-04-25T21:28:48.964Z,85.61
2023-04-25T21:31:17.597Z,85.49
2023-04-25T21:33:48.307Z,85.47
2023-04-25T21:36:17.056Z,85.41
2023-04-25T21:38:45.523Z,85.21
2023-04-25T21:41:13.948Z,85.16
2023-04-25T21:43:41.847Z,84.91
2023-04-25T21:48:40.330Z,84.79
2023-04-25T21:51:08.083Z,84.77
2023-04-25T21:53:36.776Z,84.77
2023-04-25T21:56:04.964Z,84.71
2023-04-25T21:58:37.343Z,84.69
2023-04-25T22:01:05.136Z,84.61
2023-04-25T22:03:36.652Z,84.56
2023-04-25T22:06:04.850Z,84.49
2023-04-25T22:08:33.812Z,84.47
2023-04-25T22:11:02.864Z,84.61
2023-04-25T22:13:35.168Z,84.74
2023-04-25T22:16:06.790Z,84.87
2023-04-25T22:18:40.502Z,84.60
2023-04-25T22:21:08.372Z,84.33
2023-04-25T22:23:38.410Z,84.37
2023-04-25T22:26:09.537Z,84.35
2023-04-25T22:28:38.779Z,84.70
2023-04-25T22:31:07.097Z,84.61
2023-04-25T22:33:35.409Z,84.70
2023-04-25T22:36:03.698Z,84.61
2023-04-25T22:38:31.595Z,84.77
2023-04-25T22:41:01.181Z,84.63
2023-04-25T22:43:28.926Z,84.54
2023-04-25T22:45:58.369Z,84.62
2023-04-25T22:48:26.238Z,84.61
2023-04-25T22:51:02.787Z,84.81
2023-04-25T22:53:32.950Z,84.77
2023-04-25T22:56:00.687Z,84.95
2023-04-25T22:58:28.519Z,85.29
2023-04-25T23:00:56.954Z,85.13
2023-04-25T23:03:24.926Z,85.54
2023-04-25T23:05:52.814Z,85.26
2023-04-25T23:08:20.982Z,85.27
2023-04-25T23:10:48.761Z,85.50
2023-04-25T23:13:16.567Z,85.21
2023-04-25T23:15:44.381Z,85.17
2023-04-25T23:18:13.877Z,85.17
2023-04-25T23:20:42.460Z,84.94
2023-04-25T23:23:10.547Z,84.99
2023-04-25T23:25:41.034Z,85.20
2023-04-25T23:28:08.789Z,85.36
2023-04-25T23:30:36.501Z,85.25
2023-04-25T23:33:09.960Z,85.53
2023-04-25T23:35:37.596Z,85.39
2023-04-25T23:38:05.904Z,85.49
2023-04-25T23:40:33.767Z,85.61
2023-04-25T23:43:03.040Z,85.57
2023-04-25T23:45:30.531Z,85.56
2023-04-25T23:47:58.348Z,85.42
2023-04-25T23:50:26.178Z,85.39
2023-04-25T23:52:53.991Z,85.33
2023-04-25T23:55:21.574Z,85.31
2023-04-25T23:57:49.231Z,85.14
